Latest Weather Observations for Lameroo AWS

IDS60801

Issued at 4:02 pm CST Saturday 4 July 2020 (issued every 10 minutes, with the page automatically refreshed every 10 minutes)

About weather observations | Map of weather stations | Latest weather observations for SA | Other Formats
Station Details ID: 025562 Name: AUSTIN PLAINS Lat: -35.38 Lon: 140.54 Height: 110.08 m
Data from the previous 72 hours. | See also: Recent months at Lameroo AWS
Date/Time
CST
Temp
°C
App
Temp
°C
Dew
Point
°C
Rel
Hum
%
Delta-T
°C
Wind Press
QNH
hPa
Press
MSL
hPa
Rain since
9am
mm
Dir  Spd
km/h
Gust
km/h
Spd
kts
Gust
kts
04/04:00pm 11.4 7.4 10.3 93 0.6 SW 22 30 12 16 1028.2 1028.4 1.8
04/03:30pm 11.7 7.2 10.1 90 0.8 SW 24 33 13 18 1028.1 1028.3 1.8
04/03:00pm 11.5 6.5 9.6 88 1.0 SSW 26 37 14 20 1028.0 1028.2 1.6
04/02:30pm 13.4 9.8 10.4 82 1.6 WSW 20 26 11 14 1027.8 1028.0 1.4
04/02:00pm 12.7 9.8 10.9 89 0.9 SW 17 32 9 17 1027.9 1028.1 1.4
04/01:30pm 12.6 9.0 10.5 87 1.1 WSW 20 28 11 15 1028.1 1028.3 1.2
04/01:00pm 13.6 10.0 10.4 81 1.7 WSW 20 26 11 14 1028.3 1028.5 1.0
04/12:30pm 12.8 9.3 10.3 85 1.3 WSW 19 26 10 14 1028.7 1028.9 1.0
04/12:00pm 12.7 9.1 10.6 87 1.1 WSW 20 26 11 14 1029.1 1029.3 1.0
04/11:30am 12.4 8.6 11.1 92 0.7 WSW 22 30 12 16 1029.3 1029.5 1.0
04/11:00am 11.3 7.4 10.8 97 0.3 WSW 22 30 12 16 1029.8 1030.0 1.0
04/10:30am 10.5 7.4 10.2 98 0.2 W 17 28 9 15 1029.8 1030.0 1.0
04/10:00am 10.0 6.7 9.7 98 0.2 W 17 20 9 11 1029.7 1029.9 0.8
04/09:30am 9.1 6.4 8.8 98 0.1 WNW 13 15 7 8 1029.6 1029.8 0.6
04/09:00am 8.8 5.6 8.4 97 0.2 WNW 15 17 8 9 1029.4 1029.6 2.0
04/08:30am 8.3 5.7 7.9 97 0.2 WNW 11 15 6 8 1029.4 1029.6 1.8
04/08:00am 7.8 4.7 7.4 97 0.2 WNW 13 17 7 9 1029.1 1029.3 1.6
04/07:30am 7.5 4.7 7.1 97 0.2 WNW 11 15 6 8 1029.1 1029.3 1.6
04/07:00am 6.9 4.0 6.5 97 0.2 WNW 11 15 6 8 1029.0 1029.2 1.6
04/06:30am 6.2 3.1 5.6 96 0.3 WNW 11 15 6 8 1028.8 1029.0 1.6
04/06:00am 5.7 2.5 5.1 96 0.3 W 11 13 6 7 1028.7 1028.9 1.6
04/05:30am 5.8 2.6 5.2 96 0.3 WNW 11 15 6 8 1028.5 1028.7 1.6
04/05:00am 4.5 0.7 3.8 95 0.3 W 13 15 7 8 1028.3 1028.5 1.6
04/04:30am 5.0 0.9 4.1 94 0.4 WNW 15 15 8 8 1028.4 1028.6 1.6
04/04:00am 5.2 2.2 4.2 93 0.4 WNW 9 13 5 7 1028.4 1028.6 1.6
04/03:30am 5.4 1.7 4.5 94 0.4 WNW 13 17 7 9 1028.3 1028.5 1.6
04/03:00am 5.0 1.6 4.0 93 0.4 W 11 13 6 7 1028.4 1028.6 1.6
04/02:30am 5.1 2.1 3.9 92 0.5 WSW 9 9 5 5 1028.3 1028.5 1.6
04/02:00am 6.0 3.1 4.8 92 0.5 W 9 9 5 5 1028.4 1028.6 1.6
04/01:30am 6.2 3.3 4.8 91 0.6 W 9 11 5 6 1028.3 1028.5 1.6
04/01:00am 6.3 3.4 4.9 91 0.6 W 9 15 5 8 1028.4 1028.6 1.6
04/12:30am 6.9 3.3 5.2 89 0.7 SW 13 17 7 9 1028.4 1028.6 1.6
04/12:00am 6.7 2.3 4.9 88 0.8 SW 17 20 9 11 1028.4 1028.6 1.6
 
Date/Time
CST
Temp
°C
App
Temp
°C
Dew
Point
°C
Rel
Hum
%
Delta-T
°C
Wind Press
QNH
hPa
Press
MSL
hPa
Rain since
9am
mm
Dir  Spd
km/h
Gust
km/h
Spd
kts
Gust
kts
03/11:30pm 5.5 1.0 4.2 91 0.6 WSW 17 20 9 11 1028.6 1028.8 1.6
03/11:00pm 4.3 0.4 3.3 93 0.4 W 13 15 7 8 1028.5 1028.7 1.6
03/10:30pm 4.2 0.2 2.9 91 0.5 WSW 13 15 7 8 1028.4 1028.6 1.6
03/10:00pm 3.8 0.1 2.6 92 0.5 WSW 11 13 6 7 1028.3 1028.5 1.6
03/09:30pm 3.9 0.6 2.6 91 0.5 SW 9 11 5 6 1028.0 1028.2 1.6
03/09:00pm 4.2 1.0 2.9 91 0.5 WSW 9 11 5 6 1027.8 1028.0 1.6
03/08:30pm 4.3 1.1 2.8 90 0.6 SW 9 11 5 6 1027.8 1028.0 1.6
03/08:00pm 4.6 1.1 3.4 92 0.5 WSW 11 13 6 7 1027.4 1027.6 1.6
03/07:30pm 5.0 1.8 3.2 88 0.7 WSW 9 9 5 5 1027.1 1027.3 1.6
03/07:00pm 6.4 2.6 4.1 85 1.0 SW 13 15 7 8 1026.8 1027.0 1.6
03/06:30pm 6.3 2.9 4.1 86 0.9 SW 11 13 6 7 1026.5 1026.7 1.6
03/06:00pm 7.6 3.9 4.6 81 1.3 SSW 13 17 7 9 1026.1 1026.3 1.6
03/05:30pm 8.7 2.9 4.3 74 1.9 SSW 24 30 13 16 1025.6 1025.8 1.6
03/05:00pm 9.8 4.2 5.6 75 1.9 SSW 24 32 13 17 1025.0 1025.2 1.6
03/04:30pm 10.3 4.0 5.7 73 2.1 SSW 28 39 15 21 1024.4 1024.5 1.6
03/04:00pm 10.7 3.0 5.3 69 2.5 SSW 35 41 19 22 1023.9 1024.0 1.6
03/03:30pm 11.5 4.8 5.4 66 2.8 SW 30 37 16 20 1023.4 1023.5 1.6
03/03:00pm 11.3 3.3 5.8 69 2.6 SW 37 50 20 27 1022.8 1023.0 1.6
03/02:30pm 12.1 4.5 5.9 66 2.9 SW 35 44 19 24 1022.5 1022.7 1.6
03/02:01pm 12.1 4.5 7.6 74 2.2 SW 37 63 20 34 1022.0 1022.2 1.6
03/02:00pm 12.4 5.1 7.3 71 2.5 SW 35 48 19 26 1022.1 1022.3 1.6
03/01:30pm 12.4 4.8 7.7 73 2.3 SW 37 54 20 29 1021.9 1022.1 1.6
03/01:00pm 12.5 5.8 9.5 82 1.5 SW 35 44 19 24 1021.7 1021.9 1.6
03/12:30pm 12.5 6.3 10.2 86 1.2 SW 33 43 18 23 1021.4 1021.6 1.6
03/12:07pm 12.1 5.9 9.5 84 1.3 SW 32 52 17 28 1021.4 1021.6 1.4
03/12:00pm 12.5 6.5 10.0 85 1.3 SW 32 43 17 23 1021.3 1021.5 1.4
03/11:30am 11.3 5.1 9.9 91 0.7 W 33 43 18 23 1021.4 1021.6 1.4
03/11:00am 12.9 5.9 10.1 83 1.4 WNW 37 46 20 25 1021.2 1021.4 0.0
03/10:30am 12.0 5.9 9.6 85 1.2 WNW 32 39 17 21 1021.5 1021.7 0.0
03/10:00am 11.0 5.4 8.9 87 1.0 WNW 28 39 15 21 1021.6 1021.8 0.0
03/09:30am 9.4 4.0 8.0 91 0.7 NW 26 32 14 17 1021.4 1021.6 0.0
03/09:00am 8.5 2.9 7.3 92 0.6 NW 26 32 14 17 1021.2 1021.4 1.0
03/08:30am 7.7 2.7 6.6 93 0.5 NW 22 30 12 16 1021.0 1021.2 1.0
03/08:00am 6.5 1.7 5.8 95 0.3 NW 20 24 11 13 1020.9 1021.1 1.0
03/07:30am 5.1 0.3 4.4 95 0.3 NW 19 22 10 12 1020.8 1021.0 1.0
03/07:00am 5.0 0.1 4.3 95 0.3 NW 19 24 10 13 1020.8 1021.0 1.0
03/06:30am 4.8 0.3 4.2 96 0.3 NNW 17 22 9 12 1020.6 1020.8 0.8
03/06:00am 4.6 0.0 3.9 95 0.3 NNW 17 20 9 11 1020.4 1020.6 0.8
03/05:30am 5.0 -0.1 4.3 95 0.3 NNW 20 24 11 13 1020.3 1020.5 0.8
03/05:00am 5.4 0.4 4.7 95 0.3 NNW 20 24 11 13 1020.2 1020.4 0.8
03/04:30am 5.4 1.0 4.7 95 0.3 NW 17 20 9 11 1020.2 1020.4 0.8
03/04:00am 5.2 0.8 4.6 96 0.3 NNW 17 20 9 11 1020.3 1020.5 0.8
03/03:30am 4.1 0.3 3.7 97 0.2 NW 13 19 7 10 1020.5 1020.7 0.8
03/03:00am 3.1 -0.6 2.5 96 0.2 NNW 11 13 6 7 1020.6 1020.8 0.8
03/02:30am 2.8 -0.9 2.2 96 0.2 NNW 11 13 6 7 1020.7 1020.9 0.8
03/02:00am 3.1 -0.6 2.5 96 0.2 NNW 11 13 6 7 1020.9 1021.1 0.8
03/01:30am 3.2 -0.9 2.5 95 0.3 NW 13 13 7 7 1020.8 1021.0 0.8
03/01:00am 3.9 -0.4 3.2 95 0.3 NW 15 17 8 9 1020.8 1021.0 0.8
03/12:30am 3.9 0.0 3.2 95 0.3 NW 13 15 7 8 1021.0 1021.2 0.8
03/12:00am 3.9 0.0 3.2 95 0.3 NW 13 15 7 8 1020.9 1021.1 0.8
 
Date/Time
CST
Temp
°C
App
Temp
°C
Dew
Point
°C
Rel
Hum
%
Delta-T
°C
Wind Press
QNH
hPa
Press
MSL
hPa
Rain since
9am
mm
Dir  Spd
km/h
Gust
km/h
Spd
kts
Gust
kts
02/11:30pm 4.3 0.4 3.4 94 0.4 NW 13 15 7 8 1020.9 1021.1 0.8
02/11:00pm 4.5 0.6 3.6 94 0.4 NW 13 15 7 8 1020.9 1021.1 0.8
02/10:30pm 4.5 0.6 3.6 94 0.4 NW 13 15 7 8 1020.9 1021.1 0.8
02/10:00pm 4.7 0.5 4.0 95 0.3 NW 15 17 8 9 1020.8 1021.0 0.6
02/09:30pm 4.6 0.8 3.7 94 0.4 NW 13 13 7 7 1020.6 1020.8 0.6
02/09:00pm 5.2 1.5 4.2 93 0.4 NW 13 15 7 8 1020.5 1020.7 0.6
02/08:30pm 6.4 3.2 5.2 92 0.5 WNW 11 13 6 7 1020.3 1020.5 0.6
02/08:00pm 6.6 2.7 5.2 91 0.6 WNW 15 17 8 9 1020.0 1020.2 0.6
02/07:30pm 6.2 2.6 4.8 91 0.6 WNW 13 15 7 8 1019.6 1019.8 0.6
02/07:00pm 6.9 3.4 5.5 91 0.6 WNW 13 15 7 8 1019.3 1019.5 0.6
02/06:30pm 7.0 3.1 5.5 90 0.7 WNW 15 17 8 9 1019.0 1019.2 0.6
02/06:00pm 7.2 3.8 5.8 91 0.6 WNW 13 15 7 8 1018.8 1019.0 0.6
02/05:30pm 7.8 4.0 5.8 87 0.9 W 15 17 8 9 1018.2 1018.4 0.6
02/05:00pm 9.3 4.7 6.7 84 1.2 W 20 26 11 14 1018.0 1018.2 0.6
02/04:30pm 9.5 3.8 6.9 84 1.2 W 26 35 14 19 1017.7 1017.9 0.6
02/04:19pm 9.7 3.6 6.8 82 1.4 W 28 48 15 26 1017.8 1018.0 0.4
02/04:00pm 11.6 6.3 6.9 73 2.3 W 24 32 13 17 1017.2 1017.4 0.0
02/03:30pm 12.2 5.8 7.1 71 2.5 WNW 30 37 16 20 1017.1 1017.2 0.0
02/03:00pm 11.3 4.7 6.0 70 2.5 WNW 30 39 16 21 1016.7 1016.8 0.0
02/02:30pm 11.5 4.8 5.6 67 2.7 WNW 30 39 16 21 1016.7 1016.8 0.0
02/02:00pm 11.6 4.9 5.7 67 2.8 WNW 30 39 16 21 1016.6 1016.7 0.0
02/01:30pm 12.1 4.7 4.8 61 3.4 WNW 33 43 18 23 1016.3 1016.4 0.0
02/01:00pm 13.3 6.2 5.7 60 3.6 WNW 32 39 17 21 1016.4 1016.5 0.0
02/12:30pm 13.3 7.4 7.7 69 2.8 WNW 28 37 15 20 1016.4 1016.5 0.0
02/12:00pm 12.8 7.0 7.9 72 2.4 WNW 28 35 15 19 1016.7 1016.8 0.0
02/11:30am 12.0 6.6 7.9 76 2.0 NW 26 37 14 20 1016.9 1017.0 0.0
02/11:00am 11.9 6.0 7.6 75 2.1 NW 28 35 15 19 1017.2 1017.4 0.0
02/10:30am 11.6 5.4 7.7 77 1.9 WNW 30 37 16 20 1016.9 1017.0 0.0
02/10:00am 10.9 6.1 7.2 78 1.8 WNW 22 28 12 15 1016.8 1016.9 0.0
02/09:30am 9.5 4.5 6.6 82 1.4 NW 22 28 12 15 1016.3 1016.4 0.0
02/09:00am 8.4 3.8 6.5 88 0.9 NW 20 24 11 13 1016.0 1016.1 -
02/08:30am 7.0 3.1 5.3 89 0.8 WNW 15 19 8 10 1015.8 1015.9 -
02/08:00am 5.9 1.8 4.5 91 0.6 NW 15 17 8 9 1015.5 1015.6 -
02/07:30am 5.4 0.9 4.1 91 0.6 NW 17 20 9 11 1015.2 1015.3 -
02/07:00am 5.7 0.9 4.5 92 0.5 NW 19 22 10 12 1014.7 1014.8 -
02/06:30am 5.6 1.1 4.4 92 0.5 NW 17 22 9 12 1014.5 1014.6 -
02/06:00am 5.5 1.0 4.3 92 0.5 NW 17 19 9 10 1014.1 1014.2 -
02/05:30am 5.9 1.8 4.5 91 0.6 NW 15 19 8 10 1013.6 1013.8 -
02/05:00am 6.3 1.9 4.9 91 0.6 WNW 17 19 9 10 1013.2 1013.4 -
02/04:30am 6.6 1.9 5.1 90 0.7 WNW 19 24 10 13 1012.9 1013.1 -
02/04:00am 7.2 2.4 5.5 89 0.8 WNW 20 26 11 14 1012.7 1012.9 -
02/03:44am 7.6 2.1 6.1 90 0.7 WNW 24 46 13 25 1012.7 1012.9 -
02/03:30am 7.1 2.9 5.6 90 0.7 WNW 17 20 9 11 1012.5 1012.7 -
02/03:00am 7.6 2.8 5.7 88 0.9 WNW 20 24 11 13 1012.1 1012.3 -
02/02:30am 8.5 3.1 6.3 86 1.0 WNW 24 30 13 16 1011.7 1011.9 -
02/02:00am 8.4 2.3 6.4 87 0.9 WNW 28 35 15 19 1011.4 1011.6 -
02/01:30am 8.2 2.5 6.5 89 0.8 WNW 26 33 14 18 1011.2 1011.4 -
02/01:00am 8.2 2.8 6.3 88 0.9 NW 24 32 13 17 1010.9 1011.1 3.8
02/12:30am 8.6 1.7 6.4 86 1.0 WNW 32 41 17 22 1010.4 1010.6 3.8
02/12:05am 9.1 1.4 7.1 87 0.9 WNW 37 56 20 30 1010.5 1010.7 3.8
02/12:00am 9.2 1.1 7.0 86 1.0 WNW 39 56 21 30 1010.6 1010.8 3.8
 
Date/Time
CST
Temp
°C
App
Temp
°C
Dew
Point
°C
Rel
Hum
%
Delta-T
°C
Wind Press
QNH
hPa
Press
MSL
hPa
Rain since
9am
mm
Dir  Spd
km/h
Gust
km/h
Spd
kts
Gust
kts
01/11:55pm 9.3 2.4 7.1 86 1.0 WNW 33 56 18 30 1010.5 1010.7 3.8
01/11:30pm 9.3 3.7 7.3 87 1.0 WNW 26 32 14 17 1010.1 1010.3 3.6
01/11:00pm 9.3 3.4 7.4 88 0.9 NW 28 39 15 21 1009.8 1010.0 3.6
01/10:30pm 9.2 2.9 7.6 90 0.8 NW 30 37 16 20 1009.6 1009.8 3.6
01/10:00pm 9.1 2.8 7.5 90 0.8 WNW 30 41 16 22 1010.5 1010.7 3.0
01/09:30pm 9.1 3.5 7.2 88 0.9 WNW 26 33 14 18 1009.5 1009.6 1.8
01/09:00pm 9.6 2.9 7.4 86 1.1 W 32 43 17 23 1009.6 1009.8 1.4
01/08:30pm 9.5 2.0 7.9 90 0.8 W 37 48 20 26 1009.5 1009.6 1.4
01/08:00pm 9.8 0.9 7.6 86 1.1 WSW 44 57 24 31 1009.3 1009.4 0.2
01/07:30pm 11.9 3.2 8.4 79 1.7 WSW 44 72 24 39 1008.2 1008.3 0.0
01/07:06pm 13.0 4.6 8.9 76 2.1 WSW 43 63 23 34 1007.3 1007.4 0.0
01/07:00pm 13.9 6.1 8.3 69 2.8 W 39 63 21 34 1007.1 1007.2 0.0
01/06:58pm 14.8 7.6 7.8 63 3.5 WNW 35 63 19 34 1006.9 1007.0 0.0
01/06:56pm 16.4 9.3 5.7 49 5.2 WNW 32 57 17 31 1006.7 1006.8 0.0
01/06:30pm 16.6 10.5 6.4 51 5.0 WNW 28 39 15 21 1006.0 1006.1 0.0
01/06:28pm 16.5 10.3 6.3 51 5.0 WNW 28 39 15 21 1005.9 1006.0 0.0
01/06:00pm 14.5 10.4 6.3 58 4.0 WNW 17 19 9 10 1005.6 1005.7 0.0
01/05:30pm 14.9 10.9 6.5 57 4.1 NW 17 20 9 11 1005.2 1005.3 0.0
01/05:00pm 15.6 12.2 6.1 53 4.6 N 13 17 7 9 1005.0 1005.1 0.0
01/04:30pm 17.5 12.7 4.5 42 6.2 N 19 22 10 12 1005.0 1005.1 0.0

Other formats

Comma delimited format used in spreadsheet applications
http://www.bom.gov.au/fwo/IDS60801/IDS60801.94690.axf

JavaScript Object Notation format (JSON) in row-major order
http://www.bom.gov.au/fwo/IDS60801/IDS60801.94690.json

Data quality

Most of these data are generated automatically and are frequently updated. Quality checks on data are not normally performed. It is possible for incorrect values to appear. Refer to information at About Latest Weather Observations and please check the disclaimer before using these data.